createdAt,value
2022-11-14T00:00:50.019Z,67.90
2022-11-14T00:03:20.392Z,67.70
2022-11-14T00:05:51.074Z,67.60
2022-11-14T00:08:29.344Z,67.30
2022-11-14T00:11:00.156Z,67.00
2022-11-14T00:13:30.755Z,66.90
2022-11-14T00:16:01.219Z,66.70
2022-11-14T00:18:32.310Z,66.30
2022-11-14T00:21:02.814Z,66.50
2022-11-14T00:23:33.626Z,66.20
2022-11-14T00:26:04.029Z,66.10
2022-11-14T00:28:34.474Z,66.00
2022-11-14T00:31:04.641Z,66.20
2022-11-14T00:33:34.971Z,66.20
2022-11-14T00:36:05.334Z,66.00
2022-11-14T00:38:44.793Z,66.00
2022-11-14T00:41:14.988Z,66.10
2022-11-14T00:43:45.214Z,66.00
2022-11-14T00:46:16.580Z,66.10
2022-11-14T00:48:47.366Z,66.00
2022-11-14T00:51:17.540Z,66.00
2022-11-14T00:53:47.754Z,66.20
2022-11-14T00:56:17.992Z,66.00
2022-11-14T00:58:48.295Z,66.00
2022-11-14T01:01:18.699Z,65.70
2022-11-14T01:03:55.397Z,65.60
2022-11-14T01:06:25.709Z,65.50
2022-11-14T01:08:56.022Z,65.50
2022-11-14T01:11:26.615Z,65.50
2022-11-14T01:13:56.887Z,65.40
2022-11-14T01:16:27.078Z,65.40
2022-11-14T01:18:57.354Z,65.40
2022-11-14T01:21:27.617Z,65.40
2022-11-14T01:23:57.843Z,65.30
2022-11-14T01:26:28.080Z,65.20
2022-11-14T01:28:58.356Z,65.20
2022-11-14T01:31:28.633Z,65.30
2022-11-14T01:33:58.805Z,65.20
2022-11-14T01:36:28.990Z,65.20
2022-11-14T01:38:59.265Z,65.20
2022-11-14T01:41:29.432Z,65.30
2022-11-14T01:43:59.591Z,65.40
2022-11-14T01:46:36.030Z,65.30
2022-11-14T01:49:21.246Z,65.30
2022-11-14T01:52:12.273Z,65.20
2022-11-14T01:54:47.098Z,65.30
2022-11-14T01:57:22.462Z,65.30
2022-11-14T01:59:56.580Z,65.30
2022-11-14T02:02:28.513Z,65.30
2022-11-14T02:05:12.831Z,65.30
2022-11-14T02:07:44.043Z,65.10
2022-11-14T02:10:20.495Z,65.20
2022-11-14T02:12:52.142Z,65.10
2022-11-14T02:15:22.409Z,65.10
2022-11-14T02:17:52.818Z,65.00
2022-11-14T02:20:33.368Z,64.80
2022-11-14T02:23:03.729Z,64.80
2022-11-14T02:25:33.939Z,64.80
2022-11-14T02:28:07.624Z,64.70
2022-11-14T02:30:38.045Z,64.70
2022-11-14T02:33:10.910Z,64.70
2022-11-14T02:35:42.265Z,64.80
2022-11-14T02:38:13.313Z,64.70
2022-11-14T02:40:43.537Z,64.60
2022-11-14T02:43:13.749Z,64.40
2022-11-14T02:45:44.103Z,64.40
2022-11-14T02:48:14.387Z,64.30
2022-11-14T02:50:44.701Z,64.20
2022-11-14T02:53:17.625Z,64.10
2022-11-14T02:55:47.845Z,64.10
2022-11-14T02:58:18.093Z,64.10
2022-11-14T03:01:13.732Z,63.90
2022-11-14T03:03:38.773Z,64.00
2022-11-14T03:06:09.419Z,63.90
2022-11-14T03:08:40.097Z,63.80
2022-11-14T03:11:11.960Z,63.80
2022-11-14T03:13:42.414Z,63.80
2022-11-14T03:16:16.048Z,63.90
2022-11-14T03:18:46.396Z,63.90
2022-11-14T03:21:19.249Z,64.00
2022-11-14T03:23:49.663Z,64.00
2022-11-14T03:26:20.623Z,64.00
2022-11-14T03:28:50.747Z,64.10
2022-11-14T03:31:20.905Z,64.20
2022-11-14T03:33:52.112Z,64.20
2022-11-14T03:36:22.410Z,64.20
2022-11-14T03:38:52.653Z,64.10
2022-11-14T03:41:22.874Z,64.20
2022-11-14T03:43:53.114Z,64.20
2022-11-14T03:46:23.476Z,64.20
2022-11-14T03:48:53.725Z,64.20
2022-11-14T03:51:24.089Z,64.20
2022-11-14T03:53:54.360Z,64.10
2022-11-14T03:56:25.286Z,64.20
2022-11-14T03:58:55.558Z,64.20
2022-11-14T04:01:25.964Z,64.20
2022-11-14T04:03:56.181Z,64.20
2022-11-14T04:06:26.490Z,64.20
2022-11-14T04:08:58.381Z,64.10
2022-11-14T04:11:28.605Z,64.20
2022-11-14T04:13:58.909Z,64.20
2022-11-14T04:16:29.820Z,64.20
2022-11-14T04:19:00.116Z,64.20
2022-11-14T04:21:30.582Z,64.10
2022-11-14T04:24:00.763Z,64.10
2022-11-14T04:26:31.037Z,64.20
2022-11-14T04:29:01.244Z,64.00
2022-11-14T04:31:31.502Z,64.00
2022-11-14T04:34:01.686Z,64.00
2022-11-14T04:36:31.884Z,64.00
2022-11-14T04:39:02.336Z,64.20
2022-11-14T04:41:32.594Z,64.20
2022-11-14T04:44:03.060Z,64.20
2022-11-14T04:46:33.262Z,64.30
2022-11-14T04:49:03.492Z,64.10
2022-11-14T04:51:33.739Z,64.20
2022-11-14T04:54:03.898Z,64.20
2022-11-14T04:56:34.741Z,64.10
2022-11-14T04:59:05.407Z,64.10
2022-11-14T05:01:35.698Z,64.10
2022-11-14T05:04:05.965Z,64.00
2022-11-14T05:06:36.323Z,64.00
2022-11-14T05:09:06.719Z,64.10
2022-11-14T05:11:37.008Z,64.00
2022-11-14T05:14:07.416Z,64.10
2022-11-14T05:16:37.844Z,64.10
2022-11-14T05:19:08.109Z,64.00
2022-11-14T05:21:38.301Z,64.00
2022-11-14T05:24:08.715Z,64.10
2022-11-14T05:26:39.187Z,64.10
2022-11-14T05:29:09.615Z,64.00
2022-11-14T05:31:39.814Z,64.00
2022-11-14T05:34:09.966Z,64.00
2022-11-14T05:36:40.429Z,64.00
2022-11-14T05:39:10.701Z,63.90
2022-11-14T05:41:40.920Z,63.90
2022-11-14T05:44:11.616Z,64.00
2022-11-14T05:46:41.839Z,63.90
2022-11-14T05:49:12.102Z,63.90
2022-11-14T05:51:42.537Z,63.80
2022-11-14T05:54:12.764Z,63.80
2022-11-14T05:56:43.115Z,63.90
2022-11-14T05:59:13.239Z,63.70
2022-11-14T06:01:43.592Z,63.80
2022-11-14T06:04:16.765Z,63.80
2022-11-14T06:06:47.073Z,63.80
2022-11-14T06:09:17.392Z,63.80
2022-11-14T06:11:47.737Z,63.80
2022-11-14T06:14:17.998Z,63.80
2022-11-14T06:16:48.407Z,63.80
2022-11-14T06:19:18.681Z,63.90
2022-11-14T06:21:48.909Z,63.90
2022-11-14T06:24:19.262Z,64.00
2022-11-14T06:26:49.526Z,64.00
2022-11-14T06:29:19.804Z,64.10
2022-11-14T06:31:50.082Z,64.10
2022-11-14T06:34:20.355Z,64.20
2022-11-14T06:36:50.605Z,64.10
2022-11-14T06:39:20.771Z,64.10
2022-11-14T06:41:51.022Z,64.10
2022-11-14T06:44:23.101Z,64.20
2022-11-14T06:46:55.673Z,64.10
2022-11-14T06:49:29.465Z,64.20
2022-11-14T06:51:59.759Z,64.20
2022-11-14T06:54:30.005Z,64.20
2022-11-14T06:57:00.256Z,64.20
2022-11-14T06:59:30.427Z,64.20
2022-11-14T07:02:00.916Z,64.20
2022-11-14T07:04:31.093Z,64.30
2022-11-14T07:07:01.335Z,64.30
2022-11-14T07:09:31.555Z,64.30
2022-11-14T07:12:01.753Z,64.30
2022-11-14T07:14:32.033Z,64.30
2022-11-14T07:17:02.493Z,64.40
2022-11-14T07:19:32.660Z,64.40
2022-11-14T07:22:02.891Z,64.40
2022-11-14T07:24:33.062Z,64.30
2022-11-14T07:27:03.852Z,64.30
2022-11-14T07:29:34.006Z,64.30
2022-11-14T07:32:04.166Z,64.30
2022-11-14T07:34:34.394Z,64.30
2022-11-14T07:37:04.682Z,64.30
2022-11-14T07:39:34.897Z,64.30
2022-11-14T07:42:05.079Z,64.40
2022-11-14T07:44:36.027Z,64.40
2022-11-14T07:47:06.363Z,64.40
2022-11-14T07:49:36.636Z,64.40
2022-11-14T07:52:06.947Z,64.50
2022-11-14T07:54:37.147Z,64.40
2022-11-14T07:57:07.367Z,64.40
2022-11-14T07:59:37.805Z,64.50
2022-11-14T08:02:08.369Z,64.50
2022-11-14T08:04:38.804Z,64.40
2022-11-14T08:07:09.122Z,64.40
2022-11-14T08:09:39.440Z,64.40
2022-11-14T08:12:09.871Z,64.40
2022-11-14T08:14:40.003Z,64.30
2022-11-14T08:17:10.148Z,64.30
2022-11-14T08:19:40.433Z,64.30
2022-11-14T08:22:10.947Z,64.30
2022-11-14T08:24:41.184Z,64.30
2022-11-14T08:27:11.388Z,64.30
2022-11-14T08:29:41.595Z,64.30
2022-11-14T08:32:12.307Z,64.20
2022-11-14T08:34:42.554Z,64.10
2022-11-14T08:37:13.026Z,64.10
2022-11-14T08:39:43.195Z,64.00
2022-11-14T08:42:13.599Z,64.00
2022-11-14T08:44:49.326Z,64.00
2022-11-14T08:47:22.215Z,64.00
2022-11-14T08:49:52.446Z,64.30
2022-11-14T08:52:23.401Z,64.30
2022-11-14T08:54:53.771Z,64.30
2022-11-14T08:57:24.000Z,64.30
2022-11-14T08:59:54.230Z,64.30
2022-11-14T09:02:24.387Z,64.40
2022-11-14T09:04:54.631Z,64.40
2022-11-14T09:07:24.940Z,64.50
2022-11-14T09:09:55.233Z,64.90
2022-11-14T09:12:25.456Z,64.40
2022-11-14T09:14:55.665Z,64.50
2022-11-14T09:17:25.917Z,64.50
2022-11-14T09:19:56.295Z,64.50
2022-11-14T09:22:26.644Z,64.40
2022-11-14T09:24:56.879Z,64.50
2022-11-14T09:27:29.585Z,64.60
2022-11-14T09:30:00.160Z,64.70
2022-11-14T09:32:30.594Z,64.70
2022-11-14T09:35:00.834Z,64.60
2022-11-14T09:37:31.042Z,64.70
2022-11-14T09:40:01.314Z,64.70
2022-11-14T09:42:58.218Z,64.80
2022-11-14T09:45:30.547Z,64.70
2022-11-14T09:48:11.234Z,64.80
2022-11-14T09:50:50.518Z,64.80
2022-11-14T09:53:36.416Z,64.80
2022-11-14T09:56:06.787Z,64.70
2022-11-14T09:58:37.126Z,64.80
2022-11-14T10:01:44.005Z,64.80
2022-11-14T10:04:32.038Z,64.80
2022-11-14T10:07:33.010Z,64.90
2022-11-14T10:10:16.282Z,64.80
2022-11-14T10:12:56.426Z,64.90
2022-11-14T10:16:15.446Z,64.90
2022-11-14T10:18:45.835Z,64.80
2022-11-14T10:21:31.883Z,65.00
2022-11-14T10:24:25.995Z,64.90
2022-11-14T10:27:03.752Z,64.80
2022-11-14T10:29:48.351Z,64.90
2022-11-14T10:32:25.738Z,64.80
2022-11-14T10:35:22.149Z,64.80
2022-11-14T10:38:09.010Z,64.80
2022-11-14T10:40:45.136Z,65.00
2022-11-14T10:43:34.808Z,65.00
2022-11-14T10:46:25.557Z,65.00
2022-11-14T10:49:00.239Z,65.00
2022-11-14T10:51:36.986Z,65.00
2022-11-14T10:54:17.087Z,65.10
2022-11-14T10:56:56.252Z,65.00
2022-11-14T10:59:26.776Z,65.00
2022-11-14T11:02:00.396Z,65.10
2022-11-14T11:04:39.215Z,65.80
2022-11-14T11:07:31.957Z,65.00
2022-11-14T11:10:24.394Z,65.00
2022-11-14T11:12:56.396Z,65.00
2022-11-14T11:15:28.661Z,65.10
2022-11-14T11:18:01.377Z,65.10
2022-11-14T11:20:37.809Z,65.10
2022-11-14T11:23:29.466Z,65.00
2022-11-14T11:26:09.576Z,65.00
2022-11-14T11:28:40.268Z,65.00
2022-11-14T11:31:13.169Z,65.10
2022-11-14T11:33:45.030Z,65.20
2022-11-14T11:36:35.739Z,65.10
2022-11-14T11:39:06.084Z,65.00
2022-11-14T11:42:07.690Z,65.20
2022-11-14T11:44:38.923Z,65.20
2022-11-14T11:47:15.691Z,65.20
2022-11-14T11:49:54.892Z,65.20
2022-11-14T11:52:36.628Z,65.20
2022-11-14T11:55:48.040Z,65.10
2022-11-14T11:58:26.944Z,65.10
2022-11-14T12:00:57.976Z,65.20
2022-11-14T12:03:29.009Z,65.20
2022-11-14T12:06:27.098Z,65.20
2022-11-14T12:09:05.054Z,65.10
2022-11-14T12:11:38.715Z,65.20
2022-11-14T12:14:18.223Z,65.30
2022-11-14T12:17:00.449Z,65.30
2022-11-14T12:19:48.627Z,65.20
2022-11-14T12:22:45.743Z,65.10
2022-11-14T12:25:24.588Z,65.20
2022-11-14T12:28:26.548Z,65.30
2022-11-14T12:31:03.483Z,65.20
2022-11-14T12:33:40.377Z,65.30
2022-11-14T12:36:15.418Z,65.30
2022-11-14T12:38:55.350Z,65.30
2022-11-14T12:41:31.446Z,66.10
2022-11-14T12:44:34.042Z,65.30
2022-11-14T12:47:10.143Z,65.30
2022-11-14T12:49:55.311Z,65.40
2022-11-14T12:52:46.346Z,65.30
2022-11-14T12:55:28.894Z,65.30
2022-11-14T12:58:10.043Z,65.40
2022-11-14T13:01:08.842Z,65.50
2022-11-14T13:03:42.052Z,65.30
2022-11-14T13:06:34.452Z,65.40
2022-11-14T13:09:13.746Z,65.40
2022-11-14T13:12:04.982Z,65.50
2022-11-14T13:15:08.283Z,65.50
2022-11-14T13:17:57.012Z,65.50
2022-11-14T13:20:55.918Z,65.50
2022-11-14T13:23:29.749Z,65.60
2022-11-14T13:26:29.079Z,65.60
2022-11-14T13:28:59.876Z,65.50
2022-11-14T13:31:39.102Z,65.60
2022-11-14T13:34:27.382Z,65.50
2022-11-14T13:37:17.398Z,65.50
2022-11-14T13:40:24.428Z,65.60
2022-11-14T13:43:12.761Z,65.60
2022-11-14T13:46:01.180Z,65.70
2022-11-14T13:49:03.332Z,65.60
2022-11-14T13:51:43.370Z,65.60
2022-11-14T13:54:18.946Z,65.80
2022-11-14T13:57:30.253Z,65.70
2022-11-14T14:00:20.323Z,65.60
2022-11-14T14:03:06.290Z,65.90
2022-11-14T14:05:42.577Z,65.90
2022-11-14T14:08:13.377Z,65.90
2022-11-14T14:10:52.565Z,65.90
2022-11-14T14:13:42.134Z,65.90
2022-11-14T14:16:38.732Z,65.70
2022-11-14T14:19:26.224Z,65.90
2022-11-14T14:22:34.756Z,66.00
2022-11-14T14:25:16.440Z,66.00
2022-11-14T14:27:52.551Z,66.10
2022-11-14T14:30:23.299Z,66.10
2022-11-14T14:33:09.623Z,66.10
2022-11-14T14:35:41.547Z,66.00
2022-11-14T14:38:23.802Z,66.10
2022-11-14T14:40:55.979Z,66.10
2022-11-14T14:43:37.396Z,66.00
2022-11-14T14:46:07.905Z,66.00
2022-11-14T14:48:42.843Z,66.10
2022-11-14T14:51:17.219Z,66.10
2022-11-14T14:53:55.641Z,66.00
2022-11-14T14:56:27.500Z,66.10
2022-11-14T14:58:58.225Z,66.10
2022-11-14T15:01:37.430Z,66.10
2022-11-14T15:04:10.467Z,66.10
2022-11-14T15:06:42.301Z,66.20
2022-11-14T15:09:21.582Z,66.20
2022-11-14T15:12:01.186Z,66.10
2022-11-14T15:14:34.360Z,66.10
2022-11-14T15:17:05.921Z,66.20
2022-11-14T15:19:46.028Z,66.30
2022-11-14T15:22:22.077Z,66.10
2022-11-14T15:25:13.208Z,66.30
2022-11-14T15:27:56.539Z,66.20
2022-11-14T15:30:36.578Z,66.30
2022-11-14T15:33:09.026Z,66.40
2022-11-14T15:35:41.624Z,66.40
2022-11-14T15:38:42.453Z,66.40
2022-11-14T15:41:24.771Z,66.40
2022-11-14T15:43:56.967Z,66.40
2022-11-14T15:46:50.179Z,66.50
2022-11-14T15:49:25.162Z,66.40
2022-11-14T15:52:03.849Z,66.50
2022-11-14T15:54:36.440Z,66.50
2022-11-14T15:57:18.970Z,66.50
2022-11-14T15:59:49.355Z,66.40
2022-11-14T16:02:31.331Z,66.50
2022-11-14T16:05:02.629Z,66.40
2022-11-14T16:07:32.940Z,66.50
2022-11-14T16:10:03.189Z,66.50
2022-11-14T16:12:33.350Z,66.50
2022-11-14T16:15:03.525Z,66.50
2022-11-14T16:17:42.046Z,66.50
2022-11-14T16:20:36.068Z,66.50
2022-11-14T16:23:07.243Z,66.40
2022-11-14T16:25:37.641Z,66.70
2022-11-14T16:28:07.935Z,66.70
2022-11-14T16:30:38.125Z,66.70
2022-11-14T16:33:08.460Z,66.50
2022-11-14T16:35:38.991Z,66.60
2022-11-14T16:38:09.210Z,66.60
2022-11-14T16:40:39.457Z,66.60
2022-11-14T16:43:14.175Z,66.60
2022-11-14T16:45:44.731Z,66.60
2022-11-14T16:48:15.636Z,66.70
2022-11-14T16:50:46.172Z,66.70
2022-11-14T16:53:16.538Z,66.70
2022-11-14T16:55:47.530Z,66.70
2022-11-14T16:58:17.700Z,66.70
2022-11-14T17:00:48.218Z,66.70
2022-11-14T17:03:19.824Z,66.70
2022-11-14T17:05:52.650Z,66.70
2022-11-14T17:08:22.914Z,66.70
2022-11-14T17:10:53.168Z,66.80
2022-11-14T17:13:26.964Z,66.70
2022-11-14T17:16:02.521Z,66.70
2022-11-14T17:18:37.240Z,66.80
2022-11-14T17:21:10.801Z,66.80
2022-11-14T17:23:41.060Z,66.80
2022-11-14T17:26:13.979Z,66.80
2022-11-14T17:28:45.173Z,66.80
2022-11-14T17:31:15.742Z,66.80
2022-11-14T17:33:46.308Z,66.80
2022-11-14T17:36:16.553Z,66.80
2022-11-14T17:38:46.815Z,66.80
2022-11-14T17:41:17.201Z,66.80
2022-11-14T17:43:48.006Z,66.80
2022-11-14T17:46:18.446Z,66.80
2022-11-14T17:48:49.292Z,66.80
2022-11-14T17:51:21.208Z,66.90
2022-11-14T17:53:51.440Z,66.80
2022-11-14T17:56:24.191Z,66.90
2022-11-14T17:58:55.972Z,66.90
2022-11-14T18:01:28.017Z,66.80
2022-11-14T18:04:03.205Z,66.80
2022-11-14T18:06:40.179Z,66.80
2022-11-14T18:09:14.038Z,66.80
2022-11-14T18:11:47.504Z,66.80
2022-11-14T18:14:17.918Z,66.90
2022-11-14T18:17:11.864Z,66.90
2022-11-14T18:19:38.836Z,66.90
2022-11-14T18:22:09.557Z,66.90
2022-11-14T18:24:43.137Z,66.90
2022-11-14T18:27:13.600Z,66.80
2022-11-14T18:29:43.800Z,66.90
2022-11-14T18:32:13.975Z,66.90
2022-11-14T18:34:44.325Z,66.90
2022-11-14T18:37:14.595Z,66.90
2022-11-14T18:39:44.825Z,66.90
2022-11-14T18:42:15.138Z,66.90
2022-11-14T18:44:45.779Z,66.90
2022-11-14T18:47:16.177Z,66.90
2022-11-14T18:49:46.776Z,67.00
2022-11-14T18:52:17.730Z,67.00
2022-11-14T18:54:48.350Z,67.00
2022-11-14T18:57:19.100Z,67.00
2022-11-14T18:59:49.298Z,67.10
2022-11-14T19:02:19.556Z,67.00
2022-11-14T19:04:49.826Z,67.00
2022-11-14T19:07:20.262Z,67.00
2022-11-14T19:09:50.963Z,67.00
2022-11-14T19:12:24.000Z,67.10
2022-11-14T19:14:55.496Z,67.10
2022-11-14T19:17:26.011Z,67.10
2022-11-14T19:19:56.860Z,67.10
2022-11-14T19:22:27.143Z,67.10
2022-11-14T19:24:58.422Z,67.10
2022-11-14T19:27:28.600Z,67.00
2022-11-14T19:29:58.854Z,67.10
2022-11-14T19:32:29.305Z,67.10
2022-11-14T19:34:59.564Z,67.20
2022-11-14T19:37:31.224Z,67.20
2022-11-14T19:40:01.821Z,67.20
2022-11-14T19:42:32.183Z,67.10
2022-11-14T19:45:02.442Z,67.10
2022-11-14T19:47:32.648Z,67.10
2022-11-14T19:50:02.919Z,67.10
2022-11-14T19:52:33.144Z,67.20
2022-11-14T19:55:03.309Z,67.20
2022-11-14T19:57:34.019Z,67.20
2022-11-14T20:00:04.320Z,67.20
2022-11-14T20:02:34.700Z,67.20
2022-11-14T20:05:04.948Z,67.30
2022-11-14T20:07:37.011Z,67.20
2022-11-14T20:10:08.496Z,67.30
2022-11-14T20:12:38.796Z,67.30
2022-11-14T20:15:09.602Z,67.30
2022-11-14T20:17:39.876Z,67.30
2022-11-14T20:20:10.648Z,67.40
2022-11-14T20:22:40.995Z,67.40
2022-11-14T20:25:11.494Z,67.60
2022-11-14T20:27:41.799Z,67.60
2022-11-14T20:30:12.243Z,67.80
2022-11-14T20:32:42.614Z,68.00
2022-11-14T20:35:12.819Z,68.10
2022-11-14T20:37:43.266Z,68.10
2022-11-14T20:40:14.239Z,67.90
2022-11-14T20:42:44.481Z,68.00
2022-11-14T20:45:14.682Z,67.70
2022-11-14T20:47:45.006Z,67.80
2022-11-14T20:50:15.292Z,67.90
2022-11-14T20:52:47.515Z,67.80
2022-11-14T20:55:18.406Z,67.90
2022-11-14T20:57:48.759Z,67.80
2022-11-14T21:00:19.434Z,68.00
2022-11-14T21:02:49.683Z,67.90
2022-11-14T21:05:19.990Z,67.80
2022-11-14T21:07:50.207Z,68.00
2022-11-14T21:10:38.357Z,68.00
2022-11-14T21:13:29.801Z,67.90
2022-11-14T21:16:01.281Z,68.10
2022-11-14T21:18:32.436Z,68.00
2022-11-14T21:21:06.076Z,68.20
2022-11-14T21:23:36.968Z,68.10
2022-11-14T21:26:16.351Z,68.10
2022-11-14T21:28:48.814Z,68.10
2022-11-14T21:31:23.575Z,68.40
2022-11-14T21:34:00.340Z,68.40
2022-11-14T21:36:47.516Z,68.50
2022-11-14T21:39:18.670Z,68.50
2022-11-14T21:41:50.842Z,68.60
2022-11-14T21:44:23.313Z,68.50
2022-11-14T21:46:55.366Z,68.60
2022-11-14T21:49:25.682Z,68.70
2022-11-14T21:51:55.968Z,68.60
2022-11-14T21:54:26.187Z,68.70
2022-11-14T21:56:56.360Z,68.60
2022-11-14T21:59:29.226Z,68.60
2022-11-14T22:02:17.814Z,68.50
2022-11-14T22:04:48.976Z,68.40
2022-11-14T22:07:19.328Z,68.30
2022-11-14T22:09:49.682Z,68.30
2022-11-14T22:12:19.972Z,68.50
2022-11-14T22:14:50.199Z,68.50
2022-11-14T22:17:20.413Z,68.60
2022-11-14T22:19:50.628Z,68.50
2022-11-14T22:22:20.824Z,68.50
2022-11-14T22:24:51.095Z,68.50
2022-11-14T22:27:21.276Z,68.50
2022-11-14T22:29:51.538Z,68.50
2022-11-14T22:32:21.741Z,68.40
2022-11-14T22:34:51.954Z,68.40
2022-11-14T22:37:22.175Z,68.40
2022-11-14T22:39:52.486Z,68.40
2022-11-14T22:42:22.692Z,68.40
2022-11-14T22:44:52.944Z,68.50
2022-11-14T22:47:24.134Z,68.40
2022-11-14T22:49:54.742Z,68.40
2022-11-14T22:52:24.934Z,68.20
2022-11-14T22:54:55.198Z,68.20
2022-11-14T22:57:25.442Z,68.20
2022-11-14T22:59:55.634Z,68.20
2022-11-14T23:02:25.882Z,68.10
2022-11-14T23:04:56.108Z,68.10
2022-11-14T23:07:28.422Z,67.90
2022-11-14T23:09:58.717Z,67.90
2022-11-14T23:12:28.948Z,68.00
2022-11-14T23:14:59.862Z,68.00
2022-11-14T23:17:30.192Z,68.10
2022-11-14T23:20:01.293Z,68.20
2022-11-14T23:22:32.286Z,68.30
2022-11-14T23:25:02.758Z,68.30
2022-11-14T23:27:34.318Z,68.30
2022-11-14T23:30:04.482Z,68.30
2022-11-14T23:32:34.684Z,68.30
2022-11-14T23:35:05.276Z,68.30
2022-11-14T23:37:36.053Z,68.30
2022-11-14T23:40:06.494Z,68.20
2022-11-14T23:42:36.729Z,68.20
2022-11-14T23:45:07.218Z,68.20
2022-11-14T23:47:37.514Z,68.10
2022-11-14T23:50:08.217Z,68.10
2022-11-14T23:52:38.431Z,68.00
2022-11-14T23:55:08.933Z,68.00
2022-11-14T23:57:39.227Z,68.00
